• Join FlightAware (Why Join?)
  • Login
  • US Flag 
01:14PM EDT


 

Airport Tracker/Info


-or-


 

Live Flight TrackerFlight Track Log ✈ LAN642 ✈ 23-04-2014 ✈ SCEL / SCL - SPIM / LIM

Flight Track Log - Related Links

Times and Time Zones

All times are in EDT time to prevent confusion due to time zone crossing. See the LAN642 flight status page for this flight to view local times or setup timezone preferences in your user account.

Time Position Orientation Groundspeed Altitude Reporting Facility
EDT Latitude Longitude Course Direction KTS MPH feet Rate Location/Type
02:27PM -33.4037 -70.7855 179° South 159 183 2,100  Level FlightAware ADS-B (SCEL / SCL)
02:27PM -33.4191 -70.7850 178° South 179 206 2,500 1,020 Climbing FlightAware ADS-B (SCEL / SCL)
02:28PM -33.4313 -70.7843 177° South 204 235 2,800 900 Climbing FlightAware ADS-B (SCEL / SCL)
02:28PM -33.4564 -70.7827 177° South 237 273 3,100 1,440 Climbing FlightAware ADS-B (SCEL / SCL)
02:28PM -33.4816 -70.7810 177° South 252 290 3,800 3,060 Climbing FlightAware ADS-B (SCEL / SCL)
02:29PM -33.5020 -70.7796 180° South 235 270 5,200 3,900 Climbing FlightAware ADS-B (SCEL / SCL)
02:29PM -33.5130 -70.7811 195° South 231 266 5,700 3,000 Climbing FlightAware ADS-B (SCEL / SCL)
02:29PM -33.5215 -70.7858 214° Southwest 232 267 6,100 2,160 Climbing FlightAware ADS-B (SCEL / SCL)
02:29PM -33.5299 -70.7954 234° Southwest 239 275 6,400 1,320 Climbing FlightAware ADS-B (SCEL / SCL)
02:29PM -33.5352 -70.8097 254° West 249 287 6,600 1,680 Climbing FlightAware ADS-B (SCEL / SCL)
02:30PM -33.5360 -70.8222 274° West 254 292 7,000 2,400 Climbing FlightAware ADS-B (SCEL / SCL)
02:30PM -33.5331 -70.8376 290° West 253 291 7,400 2,280 Climbing FlightAware ADS-B (SCEL / SCL)
02:30PM -33.5299 -70.8449 310° West 256 295 7,800 2,520 Climbing FlightAware ADS-B (SCEL / SCL)
02:30PM -33.5186 -70.8578 325° Northwest 257 296 8,200 2,340 Climbing FlightAware ADS-B (SCEL / SCL)
02:30PM -33.5017 -70.8732 322° Northwest 262 302 8,900 1,560 Climbing FlightAware ADS-B (SCEL / SCL)
02:31PM -33.4811 -70.8914 324° Northwest 287 330 9,300 1,320 Climbing FlightAware ADS-B (SCEL / SCL)
02:31PM -33.4595 -70.9102 324° Northwest 298 343 9,800 1,680 Climbing FlightAware ADS-B (SCEL / SCL)
02:32PM -33.4226 -70.9414 325° Northwest 320 368 10,700 1,200 Climbing FlightAware ADS-B (SCEL / SCL)
02:32PM -33.3826 -70.9743 325° Northwest 351 404 11,100 1,020 Climbing FlightAware ADS-B (SCEL / SCL)
02:33PM -33.3276 -71.0192 326° Northwest 379 436 11,900 1,500 Climbing FlightAware ADS-B (SCEL / SCL)
02:33PM -33.2875 -71.0519 326° Northwest 388 447 12,900 2,040 Climbing FlightAware ADS-B (SCEL / SCL)
02:34PM -33.2251 -71.1027 326° Northwest 393 452 14,300 2,040 Climbing FlightAware ADS-B (SCEL / SCL)
02:34PM -33.1800 -71.1394 326° Northwest 399 459 15,300 1,920 Climbing FlightAware ADS-B (SCEL / SCL)
02:35PM -33.1016 -71.1988 340° North 409 471 16,900 2,100 Climbing FlightAware ADS-B (SCEL / SCL)
02:36PM -33.0445 -71.2140 349° North 410 472 18,100 2,040 Climbing FlightAware ADS-B (SCEL / SCL)
02:36PM -32.9686 -71.2314 349° North 413 475 19,400 1,860 Climbing FlightAware ADS-B (SCEL / SCL)
02:37PM -32.8964 -71.2483 349° North 417 480 20,600 1,620 Climbing FlightAware ADS-B (SCEL / SCL)
02:38PM -32.8347 -71.2628 349° North 423 487 21,300 1,260 Climbing FlightAware ADS-B (SCEL / SCL)
02:38PM -32.7752 -71.2767 349° North 432 497 21,900 1,320 Climbing FlightAware ADS-B (SCEL / SCL)
02:39PM -32.6956 -71.2952 349° North 437 503 22,900 1,380 Climbing FlightAware ADS-B (SCEL / SCL)
02:39PM -32.6418 -71.3079 349° North 441 507 23,600 1,380 Climbing FlightAware ADS-B (SCEL / SCL)
02:40PM -32.5709 -71.3245 349° North 446 513 24,400 1,260 Climbing FlightAware ADS-B (SCEL / SCL)
02:40PM -32.4970 -71.3418 349° North 447 514 25,100 1,080 Climbing FlightAware ADS-B (SCEL / SCL)
02:41PM -32.4201 -71.3597 349° North 456 525 25,800 1,020 Climbing FlightAware ADS-B (SCEL / SCL)
02:42PM -32.3356 -71.3794 349° North 461 531 26,500 1,020 Climbing FlightAware ADS-B (SCEL / SCL)
02:43PM -32.2507 -71.3993 349° North 464 534 27,200 1,080 Climbing FlightAware ADS-B (SCEL / SCL)
02:43PM -32.1816 -71.4153 349° North 465 535 27,800 1,380 Climbing FlightAware ADS-B (SCEL / SCL)
02:44PM -32.0879 -71.4369 349° North 458 527 29,000 1,260 Climbing FlightAware ADS-B (SCEL / SCL)
02:44PM -31.9987 -71.4577 349° North 458 527 29,700 1,080 Climbing FlightAware ADS-B (SCEL / SCL)
02:45PM -31.9376 -71.4718 349° North 456 525 30,300 1,140 Climbing FlightAware ADS-B (SCEL / SCL)
02:46PM -31.8677 -71.4879 349° North 453 521 30,900 1,020 Climbing FlightAware ADS-B (SCEL / SCL)
02:46PM -31.7906 -71.5056 349° North 454 522 31,500 840 Climbing FlightAware ADS-B (SCEL / SCL)
02:47PM -31.7288 -71.5197 349° North 458 527 31,900 720 Climbing FlightAware ADS-B (SCEL / SCL)
02:47PM -31.6297 -71.5426 349° North 461 531 32,500 780 Climbing FlightAware ADS-B (SCEL / SCL)
02:50PM -31.4249 -71.6110 342° North  Level Estimated
02:51PM -31.3258 -71.6440 343° North  Level Estimated
02:52PM -31.2276 -71.6076 18° North  Level FlightAware Approximate
02:53PM -31.1286 -71.6409 346° North  Level Estimated
02:54PM -31.0256 -71.6377 North  Level FlightAware Approximate
02:55PM -30.9226 -71.6345 North  Level FlightAware Approximate
02:56PM -30.8237 -71.6680 344° North  Level Estimated
02:57PM -30.7247 -71.7013 344° North  Level FlightAware Approximate
02:58PM -30.6257 -71.7346 344° North  Level FlightAware Approximate
02:59PM -30.5268 -71.7677 344° North  Level FlightAware Approximate
03:00PM -30.4278 -71.8009 344° North  Level FlightAware Approximate
03:01PM -30.3288 -71.8339 344° North  Level FlightAware Approximate
03:02PM -30.2298 -71.8669 344° North  Level FlightAware Approximate
03:03PM -30.1308 -71.8998 344° North  Level FlightAware Approximate
03:04PM -30.0317 -71.9326 344° North  Level FlightAware Approximate
03:05PM -29.9327 -71.9654 344° North  Level FlightAware Approximate
03:06PM -29.8337 -71.9982 344° North  Level FlightAware Approximate
03:07PM -29.7346 -72.0308 344° North  Level FlightAware Approximate
03:08PM -29.6356 -72.0634 344° North  Level FlightAware Approximate
03:09PM -29.5365 -72.0959 344° North  Level FlightAware Approximate
03:10PM -29.4375 -72.1284 344° North  Level FlightAware Approximate
03:11PM -29.3384 -72.1608 344° North  Level FlightAware Approximate
03:12PM -29.2393 -72.1931 344° North  Level FlightAware Approximate
03:13PM -29.1402 -72.2254 344° North  Level FlightAware Approximate
03:14PM -29.0411 -72.2576 344° North  Level FlightAware Approximate
03:15PM -28.9420 -72.2897 344° North  Level FlightAware Approximate
03:16PM -28.8429 -72.3218 344° North  Level FlightAware Approximate
03:17PM -28.7437 -72.3538 344° North  Level FlightAware Approximate
03:18PM -28.6446 -72.3858 344° North  Level FlightAware Approximate
03:19PM -28.5455 -72.4177 344° North  Level FlightAware Approximate
03:20PM -28.4463 -72.4496 344° North  Level FlightAware Approximate
03:21PM -28.3472 -72.4813 344° North  Level FlightAware Approximate
03:22PM -28.2480 -72.5131 344° North  Level FlightAware Approximate
03:23PM -28.1489 -72.5447 344° North  Level FlightAware Approximate
03:24PM -28.0497 -72.5763 344° North  Level FlightAware Approximate
03:25PM -27.9505 -72.6079 344° North  Level FlightAware Approximate
03:26PM -27.8513 -72.6394 344° North  Level FlightAware Approximate
03:27PM -27.7521 -72.6708 344° North  Level FlightAware Approximate
03:28PM -27.6529 -72.7022 344° North  Level FlightAware Approximate
03:29PM -27.5537 -72.7335 344° North  Level FlightAware Approximate
03:30PM -27.4545 -72.7648 344° North  Level FlightAware Approximate
03:31PM -27.3553 -72.7960 344° North  Level FlightAware Approximate
03:32PM -27.2560 -72.8271 344° North  Level FlightAware Approximate
03:33PM -27.1568 -72.8582 344° North  Level FlightAware Approximate
03:34PM -27.0576 -72.8893 344° North  Level FlightAware Approximate
03:35PM -26.9583 -72.9203 344° North  Level FlightAware Approximate
03:36PM -26.8590 -72.9512 344° North  Level FlightAware Approximate
03:37PM -26.7598 -72.9821 344° North  Level FlightAware Approximate
03:38PM -26.6605 -73.0129 344° North  Level FlightAware Approximate
03:39PM -26.5612 -73.0437 345° North  Level FlightAware Approximate
03:40PM -26.4619 -73.0744 345° North  Level FlightAware Approximate
03:41PM -26.3626 -73.1050 345° North  Level FlightAware Approximate
03:42PM -26.2633 -73.1357 345° North  Level FlightAware Approximate
03:43PM -26.1640 -73.1662 345° North  Level FlightAware Approximate
03:44PM -26.0647 -73.1967 345° North  Level FlightAware Approximate
03:45PM -25.9654 -73.2272 345° North  Level FlightAware Approximate
03:46PM -25.8661 -73.2576 345° North  Level FlightAware Approximate
03:47PM -25.7668 -73.2879 345° North  Level FlightAware Approximate
03:48PM -25.6674 -73.3182 345° North  Level FlightAware Approximate
03:49PM -25.5681 -73.3485 345° North  Level FlightAware Approximate
03:50PM -25.4687 -73.3787 345° North  Level FlightAware Approximate
03:51PM -25.3694 -73.4088 345° North  Level FlightAware Approximate
03:52PM -25.2700 -73.4389 345° North  Level FlightAware Approximate
03:53PM -25.1707 -73.4690 345° North  Level FlightAware Approximate
03:54PM -25.0713 -73.4990 345° North  Level FlightAware Approximate
03:55PM -24.9719 -73.5289 345° North  Level FlightAware Approximate
03:56PM -24.8725 -73.5588 345° North  Level FlightAware Approximate
03:57PM -24.7731 -73.5887 345° North  Level FlightAware Approximate
03:58PM -24.6737 -73.6185 345° North  Level FlightAware Approximate
03:59PM -24.5743 -73.6483 345° North  Level FlightAware Approximate
04:00PM -24.4749 -73.6780 345° North  Level FlightAware Approximate
04:01PM -24.3755 -73.7077 345° North  Level FlightAware Approximate
04:02PM -24.2761 -73.7373 345° North  Level FlightAware Approximate
04:03PM -24.1767 -73.7669 345° North  Level FlightAware Approximate
04:04PM -24.0772 -73.7964 345° North  Level FlightAware Approximate
04:05PM -23.9778 -73.8259 345° North  Level FlightAware Approximate
04:06PM -23.8783 -73.8553 345° North  Level FlightAware Approximate
04:07PM -23.7789 -73.8847 345° North  Level FlightAware Approximate
04:08PM -23.6794 -73.9140 345° North  Level FlightAware Approximate
04:09PM -23.5800 -73.9434 345° North  Level FlightAware Approximate
04:10PM -23.4805 -73.9726 345° North  Level FlightAware Approximate
04:11PM -23.3810 -74.0018 345° North  Level FlightAware Approximate
04:12PM -23.2816 -74.0310 345° North  Level FlightAware Approximate
04:13PM -23.1821 -74.0601 345° North  Level FlightAware Approximate
04:14PM -23.0826 -74.0892 345° North  Level FlightAware Approximate
04:15PM -22.9831 -74.1182 345° North  Level FlightAware Approximate
04:16PM -22.8836 -74.1472 345° North  Level FlightAware Approximate
04:17PM -22.7841 -74.1762 345° North  Level FlightAware Approximate
04:18PM -22.6846 -74.2051 345° North  Level FlightAware Approximate
04:19PM -22.5851 -74.2340 345° North  Level FlightAware Approximate
04:20PM -22.4856 -74.2628 345° North  Level FlightAware Approximate
04:21PM -22.3860 -74.2916 345° North  Level FlightAware Approximate
04:22PM -22.2865 -74.3204 345° North  Level FlightAware Approximate
04:23PM -22.1870 -74.3491 345° North  Level FlightAware Approximate
04:24PM -22.0875 -74.3777 345° North  Level FlightAware Approximate
04:25PM -21.9879 -74.4064 345° North  Level FlightAware Approximate
04:26PM -21.8883 -74.4350 345° North  Level FlightAware Approximate
04:27PM -21.7888 -74.4635 345° North  Level FlightAware Approximate
04:28PM -21.6892 -74.4920 345° North  Level FlightAware Approximate
04:29PM -21.5897 -74.5205 345° North  Level FlightAware Approximate
04:30PM -21.4901 -74.5489 345° North  Level FlightAware Approximate
04:31PM -21.3905 -74.5773 345° North  Level FlightAware Approximate
04:32PM -21.2910 -74.6056 345° North  Level FlightAware Approximate
04:33PM -21.1914 -74.6339 345° North  Level FlightAware Approximate
04:34PM -21.0918 -74.6622 345° North  Level FlightAware Approximate
04:35PM -20.9922 -74.6905 345° North  Level FlightAware Approximate
04:36PM -20.8926 -74.7187 345° North  Level FlightAware Approximate
04:37PM -20.7930 -74.7468 345° North  Level FlightAware Approximate
04:38PM -20.6934 -74.7749 345° North  Level FlightAware Approximate
04:39PM -20.5938 -74.8030 345° North  Level FlightAware Approximate
04:40PM -20.4942 -74.8311 345° North  Level FlightAware Approximate
04:41PM -20.3946 -74.8591 345° North  Level FlightAware Approximate
04:42PM -20.2949 -74.8871 345° North  Level FlightAware Approximate
04:43PM -20.1953 -74.9150 345° North  Level FlightAware Approximate
04:44PM -20.0957 -74.9429 345° North  Level FlightAware Approximate
04:45PM -19.9960 -74.9708 345° North  Level FlightAware Approximate
04:46PM -19.8964 -74.9986 345° North  Level FlightAware Approximate
04:47PM -19.7967 -75.0264 345° North  Level FlightAware Approximate
04:48PM -19.6971 -75.0542 345° North  Level FlightAware Approximate
04:49PM -19.5974 -75.0819 345° North  Level FlightAware Approximate
04:50PM -19.4978 -75.1096 345° North  Level FlightAware Approximate
04:51PM -19.3981 -75.1373 345° North  Level FlightAware Approximate
04:52PM -19.2985 -75.1649 345° North  Level FlightAware Approximate
04:53PM -19.1988 -75.1925 345° North  Level FlightAware Approximate
04:54PM -19.0991 -75.2201 345° North  Level FlightAware Approximate
04:55PM -18.9994 -75.2476 345° North  Level FlightAware Approximate
04:56PM -18.8997 -75.2751 345° North  Level FlightAware Approximate
04:57PM -18.8001 -75.3026 345° North  Level FlightAware Approximate
04:58PM -18.7004 -75.3300 345° North  Level FlightAware Approximate
04:59PM -18.6007 -75.3574 345° North  Level FlightAware Approximate
05:00PM -18.5010 -75.3847 345° North  Level FlightAware Approximate
05:01PM -18.4013 -75.4121 345° North  Level FlightAware Approximate
05:02PM -18.3016 -75.4394 345° North  Level FlightAware Approximate
05:03PM -18.2019 -75.4667 345° North  Level FlightAware Approximate
05:04PM -18.1021 -75.4939 345° North  Level FlightAware Approximate
05:05PM -18.0024 -75.5211 345° North  Level FlightAware Approximate
05:06PM -17.9027 -75.5483 345° North  Level FlightAware Approximate
05:07PM -17.8030 -75.5754 345° North  Level FlightAware Approximate
05:08PM -17.7032 -75.6025 345° North  Level FlightAware Approximate
05:09PM -17.6035 -75.6296 345° North  Level FlightAware Approximate
05:10PM -17.5038 -75.6567 345° North  Level FlightAware Approximate
05:11PM -17.4040 -75.6837 346° North  Level FlightAware Approximate
05:12PM -17.3043 -75.7107 346° North  Level FlightAware Approximate
05:13PM -17.2045 -75.7377 346° North  Level FlightAware Approximate
05:14PM -17.1048 -75.7646 346° North  Level FlightAware Approximate
05:15PM -17.0050 -75.7915 346° North  Level FlightAware Approximate
05:16PM -16.9053 -75.8184 346° North  Level FlightAware Approximate
05:17PM -16.8055 -75.8453 346° North  Level FlightAware Approximate
05:18PM -16.7057 -75.8721 346° North  Level FlightAware Approximate
05:19PM -16.6060 -75.8989 346° North  Level FlightAware Approximate
05:20PM -16.5062 -75.9257 346° North  Level FlightAware Approximate
05:21PM -16.4064 -75.9524 346° North  Level FlightAware Approximate
05:22PM -16.3067 -75.9791 346° North  Level FlightAware Approximate
05:23PM -16.2069 -76.0058 346° North  Level FlightAware Approximate
05:24PM -16.1071 -76.0325 346° North  Level FlightAware Approximate
05:25PM -16.0073 -76.0591 346° North  Level FlightAware Approximate
05:26PM -15.9075 -76.0857 346° North  Level FlightAware Approximate
05:27PM -15.8077 -76.1123 346° North  Level FlightAware Approximate
05:28PM -15.7079 -76.1388 346° North  Level FlightAware Approximate
05:29PM -15.6081 -76.1654 346° North  Level FlightAware Approximate
05:30PM -15.5083 -76.1919 346° North  Level FlightAware Approximate
05:31PM -15.4085 -76.2183 346° North  Level FlightAware Approximate
05:32PM -15.3087 -76.2448 346° North  Level FlightAware Approximate
05:33PM -15.2089 -76.2712 346° North  Level FlightAware Approximate
05:34PM -15.1090 -76.2976 346° North  Level FlightAware Approximate
05:35PM -15.0092 -76.3240 346° North  Level FlightAware Approximate
05:36PM -14.9094 -76.3503 346° North  Level FlightAware Approximate
05:37PM -14.8096 -76.3767 346° North  Level FlightAware Approximate
05:38PM -14.7097 -76.4030 346° North  Level FlightAware Approximate
05:39PM -14.6099 -76.4293 346° North  Level FlightAware Approximate
05:40PM -14.5101 -76.4555 346° North  Level FlightAware Approximate
05:41PM -14.4102 -76.4817 346° North  Level FlightAware Approximate
05:42PM -14.3104 -76.5079 346° North  Level FlightAware Approximate
05:43PM -14.2105 -76.5341 346° North  Level FlightAware Approximate
05:44PM -14.1108 -76.5608 346° North  Level Estimated
05:45PM -14.0106 -76.5855 347° North  Level FlightAware Approximate
05:46PM -13.9104 -76.6102 347° North  Level FlightAware Approximate
05:47PM -13.8108 -76.6370 342° North  Level Estimated
05:48PM -13.7111 -76.6638 344° North  Level Estimated
05:49PM -13.6118 -76.6921 345° North  Level FlightAware Approximate
05:50PM -13.5125 -76.7203 345° North  Level FlightAware Approximate
05:51PM -13.4128 -76.7468 348° North  Level Estimated
05:52PM -13.3117 -76.7674 349° North  Level FlightAware Approximate
05:53PM -13.2121 -76.7943 346° North  Level Estimated
05:54PM -13.1119 -76.8191 346° North  Level FlightAware Approximate
05:55PM -13.0117 -76.8438 346° North  Level FlightAware Approximate
05:56PM -12.9116 -76.8684 346° North  Level FlightAware Approximate
05:57PM -12.8114 -76.8931 347° North  Level FlightAware Approximate
05:58PM -12.7120 -76.9210 344° North  Level Estimated
05:59PM -12.6127 -76.9489 346° North  Level Estimated
06:00PM -12.5128 -76.9749 346° North  Level FlightAware Approximate
06:01PM -12.4136 -77.0032 344° North  Level Estimated
06:02PM -12.3144 -77.0316 344° North  Level FlightAware Approximate
06:03PM -12.2151 -77.0597 349° North  Level Estimated
06:04PM -12.1158 -77.0878 349° North  Level Estimated
06:05PM -12.0167 -77.1167 334° Northwest  Level FlightAware Approximate
06:06PM -12.0219 -77.1143 334° Northwest  Level Estimated
06:07PM -12.0167 -77.1167 334° Northwest  Level FlightAware Approximate
06:08PM -12.0219 -77.1143 334° Northwest  Level Estimated
06:09PM -12.0167 -77.1167 334° Northwest  Level FlightAware Approximate
06:10PM -12.0219 -77.1143 334° Northwest  Level Estimated
06:11PM -12.0167 -77.1167 334° Northwest  Level FlightAware Approximate
06:12PM -12.0219 -77.1143 334° Northwest  Level Estimated
06:13PM -12.0167 -77.1167 334° Northwest  Level FlightAware Approximate
06:14PM -12.0219 -77.1143 334° Northwest  Level Estimated
06:15PM -12.0167 -77.1167 334° Northwest  Level FlightAware Approximate
06:16PM -12.0219 -77.1143 334° Northwest  Level Estimated
06:17PM -12.0167 -77.1167 334° Northwest  Level FlightAware Approximate
06:18PM -12.0219 -77.1143 334° Northwest  Level Estimated